sensor_id;sensor_type;location;lat;lon;timestamp;pressure;altitude;pressure_sealevel;temperature;humidity
39267;BME280;24967;51.154;13.812;2024-03-08T00:00:29;99962.34;;;3.89;77.12
39267;BME280;24967;51.154;13.812;2024-03-08T00:02:59;99960.94;;;3.84;76.95
39267;BME280;24967;51.154;13.812;2024-03-08T00:05:27;99962.75;;;3.69;77.44
39267;BME280;24967;51.154;13.812;2024-03-08T00:07:53;99961.00;;;3.55;77.65
39267;BME280;24967;51.154;13.812;2024-03-08T00:10:22;99963.00;;;3.37;78.16
39267;BME280;24967;51.154;13.812;2024-03-08T00:12:48;99963.75;;;3.25;77.93
39267;BME280;24967;51.154;13.812;2024-03-08T00:15:16;99959.13;;;3.14;78.39
39267;BME280;24967;51.154;13.812;2024-03-08T00:17:44;99955.38;;;3.04;79.18
39267;BME280;24967;51.154;13.812;2024-03-08T00:20:11;99954.16;;;2.95;79.27
39267;BME280;24967;51.154;13.812;2024-03-08T00:22:38;99962.59;;;2.86;79.92
39267;BME280;24967;51.154;13.812;2024-03-08T00:25:06;99956.84;;;2.80;80.88
39267;BME280;24967;51.154;13.812;2024-03-08T00:27:36;99951.19;;;2.71;81.17
39267;BME280;24967;51.154;13.812;2024-03-08T00:30:04;99959.63;;;2.62;81.31
39267;BME280;24967;51.154;13.812;2024-03-08T00:32:31;99956.50;;;2.56;80.99
39267;BME280;24967;51.154;13.812;2024-03-08T00:35:02;99960.63;;;2.45;81.99
39267;BME280;24967;51.154;13.812;2024-03-08T00:37:33;99955.72;;;2.39;81.76
39267;BME280;24967;51.154;13.812;2024-03-08T00:39:59;99959.91;;;2.27;83.13
39267;BME280;24967;51.154;13.812;2024-03-08T00:42:26;99961.75;;;2.25;82.91
39267;BME280;24967;51.154;13.812;2024-03-08T00:44:53;99959.56;;;2.18;83.22
39267;BME280;24967;51.154;13.812;2024-03-08T00:47:20;99961.50;;;2.14;83.91
39267;BME280;24967;51.154;13.812;2024-03-08T00:49:46;99968.03;;;2.07;83.89
39267;BME280;24967;51.154;13.812;2024-03-08T00:52:12;99960.53;;;2.01;83.73
39267;BME280;24967;51.154;13.812;2024-03-08T00:54:39;99963.56;;;1.93;84.15
39267;BME280;24967;51.154;13.812;2024-03-08T00:57:08;99965.69;;;1.87;83.83
39267;BME280;24967;51.154;13.812;2024-03-08T00:59:34;99948.69;;;1.78;84.06
39267;BME280;24967;51.154;13.812;2024-03-08T01:02:02;99954.25;;;1.72;84.44
39267;BME280;24967;51.154;13.812;2024-03-08T01:04:29;99953.75;;;1.65;84.91
39267;BME280;24967;51.154;13.812;2024-03-08T01:06:56;99948.78;;;1.60;85.11
39267;BME280;24967;51.154;13.812;2024-03-08T01:09:25;99949.97;;;1.55;85.13
39267;BME280;24967;51.154;13.812;2024-03-08T01:11:53;99945.28;;;1.44;85.94
39267;BME280;24967;51.154;13.812;2024-03-08T01:14:20;99942.94;;;1.40;86.79
39267;BME280;24967;51.154;13.812;2024-03-08T01:16:47;99937.16;;;1.33;87.54
39267;BME280;24967;51.154;13.812;2024-03-08T01:19:15;99944.25;;;1.31;88.39
39267;BME280;24967;51.154;13.812;2024-03-08T01:21:43;99948.06;;;1.25;88.17
39267;BME280;24967;51.154;13.812;2024-03-08T01:24:09;99935.03;;;1.24;88.60
39267;BME280;24967;51.154;13.812;2024-03-08T01:26:35;99925.75;;;1.18;88.94
39267;BME280;24967;51.154;13.812;2024-03-08T01:29:02;99930.22;;;1.16;89.02
39267;BME280;24967;51.154;13.812;2024-03-08T01:31:29;99924.28;;;1.12;88.97
39267;BME280;24967;51.154;13.812;2024-03-08T01:33:57;99920.13;;;1.08;88.92
39267;BME280;24967;51.154;13.812;2024-03-08T01:36:25;99920.38;;;1.04;88.73
39267;BME280;24967;51.154;13.812;2024-03-08T01:38:52;99909.41;;;0.97;88.82
39267;BME280;24967;51.154;13.812;2024-03-08T01:41:19;99914.94;;;0.91;88.63
39267;BME280;24967;51.154;13.812;2024-03-08T01:43:45;99909.09;;;0.86;88.74
39267;BME280;24967;51.154;13.812;2024-03-08T01:46:14;99902.41;;;0.80;89.50
39267;BME280;24967;51.154;13.812;2024-03-08T01:48:41;99901.78;;;0.75;89.70
39267;BME280;24967;51.154;13.812;2024-03-08T01:51:14;99894.56;;;0.63;91.12
39267;BME280;24967;51.154;13.812;2024-03-08T01:53:43;99898.03;;;0.63;91.27
39267;BME280;24967;51.154;13.812;2024-03-08T01:56:11;99895.50;;;0.62;91.48
39267;BME280;24967;51.154;13.812;2024-03-08T01:58:40;99886.03;;;0.59;91.56
39267;BME280;24967;51.154;13.812;2024-03-08T02:01:08;99880.97;;;0.56;91.48
39267;BME280;24967;51.154;13.812;2024-03-08T02:03:37;99883.75;;;0.53;91.32
39267;BME280;24967;51.154;13.812;2024-03-08T02:06:04;99890.06;;;0.49;91.90
39267;BME280;24967;51.154;13.812;2024-03-08T02:08:33;99886.69;;;0.47;91.88
39267;BME280;24967;51.154;13.812;2024-03-08T02:11:01;99878.97;;;0.44;91.81
39267;BME280;24967;51.154;13.812;2024-03-08T02:13:28;99880.81;;;0.42;92.49
39267;BME280;24967;51.154;13.812;2024-03-08T02:15:55;99878.53;;;0.36;93.28
39267;BME280;24967;51.154;13.812;2024-03-08T02:21:36;99882.22;;;0.32;93.77
39267;BME280;24967;51.154;13.812;2024-03-08T02:24:03;99880.44;;;0.32;93.80
39267;BME280;24967;51.154;13.812;2024-03-08T02:26:30;99874.38;;;0.32;94.04
39267;BME280;24967;51.154;13.812;2024-03-08T02:28:57;99870.97;;;0.30;94.04
39267;BME280;24967;51.154;13.812;2024-03-08T02:31:23;99869.22;;;0.30;93.94
39267;BME280;24967;51.154;13.812;2024-03-08T02:33:49;99866.75;;;0.27;93.51
39267;BME280;24967;51.154;13.812;2024-03-08T02:36:16;99870.44;;;0.23;93.48
39267;BME280;24967;51.154;13.812;2024-03-08T02:38:43;99870.69;;;0.18;93.69
39267;BME280;24967;51.154;13.812;2024-03-08T02:41:10;99857.78;;;0.15;93.98
39267;BME280;24967;51.154;13.812;2024-03-08T02:43:36;99861.28;;;0.14;94.02
39267;BME280;24967;51.154;13.812;2024-03-08T02:46:04;99866.00;;;0.08;94.85
39267;BME280;24967;51.154;13.812;2024-03-08T02:48:31;99865.16;;;0.07;95.27
39267;BME280;24967;51.154;13.812;2024-03-08T02:50:57;99867.13;;;0.02;96.05
39267;BME280;24967;51.154;13.812;2024-03-08T02:53:24;99858.41;;;0.03;96.43
39267;BME280;24967;51.154;13.812;2024-03-08T02:55:52;99859.25;;;0.04;96.02
39267;BME280;24967;51.154;13.812;2024-03-08T02:58:18;99861.00;;;0.03;96.22
39267;BME280;24967;51.154;13.812;2024-03-08T03:00:44;99863.69;;;0.02;96.11
39267;BME280;24967;51.154;13.812;2024-03-08T03:03:10;99863.78;;;0.00;96.04
39267;BME280;24967;51.154;13.812;2024-03-08T03:05:37;99863.00;;;-0.02;96.13
39267;BME280;24967;51.154;13.812;2024-03-08T03:08:06;99859.44;;;-0.01;96.28
39267;BME280;24967;51.154;13.812;2024-03-08T03:10:34;99861.28;;;-0.03;96.27
39267;BME280;24967;51.154;13.812;2024-03-08T03:13:02;99857.09;;;-0.06;96.25
39267;BME280;24967;51.154;13.812;2024-03-08T03:15:29;99852.75;;;-0.07;96.17
39267;BME280;24967;51.154;13.812;2024-03-08T03:17:56;99855.47;;;-0.08;96.35
39267;BME280;24967;51.154;13.812;2024-03-08T03:20:22;99852.16;;;-0.12;96.24
39267;BME280;24967;51.154;13.812;2024-03-08T03:22:52;99844.38;;;-0.13;96.29
39267;BME280;24967;51.154;13.812;2024-03-08T03:25:18;99843.53;;;-0.14;96.27
39267;BME280;24967;51.154;13.812;2024-03-08T03:27:50;99847.91;;;-0.14;96.03
39267;BME280;24967;51.154;13.812;2024-03-08T03:30:18;99846.16;;;-0.14;96.10
39267;BME280;24967;51.154;13.812;2024-03-08T03:32:47;99851.44;;;-0.15;96.40
39267;BME280;24967;51.154;13.812;2024-03-08T03:35:15;99846.44;;;-0.20;96.35
39267;BME280;24967;51.154;13.812;2024-03-08T03:37:41;99847.38;;;-0.21;96.08
39267;BME280;24967;51.154;13.812;2024-03-08T03:40:11;99840.44;;;-0.22;96.30
39267;BME280;24967;51.154;13.812;2024-03-08T03:42:38;99840.59;;;-0.25;96.28
39267;BME280;24967;51.154;13.812;2024-03-08T03:45:07;99829.59;;;-0.32;96.38
39267;BME280;24967;51.154;13.812;2024-03-08T03:47:36;99839.22;;;-0.32;96.34
39267;BME280;24967;51.154;13.812;2024-03-08T03:50:04;99840.13;;;-0.33;96.24
39267;BME280;24967;51.154;13.812;2024-03-08T03:52:31;99844.59;;;-0.35;96.30
39267;BME280;24967;51.154;13.812;2024-03-08T03:54:58;99841.19;;;-0.37;96.84
39267;BME280;24967;51.154;13.812;2024-03-08T03:57:24;99836.81;;;-0.37;97.07
39267;BME280;24967;51.154;13.812;2024-03-08T03:59:50;99841.19;;;-0.37;97.17
39267;BME280;24967;51.154;13.812;2024-03-08T04:02:17;99839.50;;;-0.38;97.10
39267;BME280;24967;51.154;13.812;2024-03-08T04:04:46;99829.91;;;-0.38;97.72
39267;BME280;24967;51.154;13.812;2024-03-08T04:07:13;99828.22;;;-0.39;97.64
39267;BME280;24967;51.154;13.812;2024-03-08T04:09:39;99826.66;;;-0.43;97.38
39267;BME280;24967;51.154;13.812;2024-03-08T04:12:06;99821.56;;;-0.46;97.25
39267;BME280;24967;51.154;13.812;2024-03-08T04:14:32;99832.03;;;-0.46;97.10
39267;BME280;24967;51.154;13.812;2024-03-08T04:16:59;99824.44;;;-0.51;97.37
39267;BME280;24967;51.154;13.812;2024-03-08T04:19:26;99826.19;;;-0.51;97.41
39267;BME280;24967;51.154;13.812;2024-03-08T04:21:54;99827.94;;;-0.52;97.49
39267;BME280;24967;51.154;13.812;2024-03-08T04:24:21;99827.03;;;-0.51;97.84
39267;BME280;24967;51.154;13.812;2024-03-08T04:26:47;99830.50;;;-0.50;97.85
39267;BME280;24967;51.154;13.812;2024-03-08T04:29:13;99824.34;;;-0.49;97.99
39267;BME280;24967;51.154;13.812;2024-03-08T04:31:40;99819.13;;;-0.49;98.80
39267;BME280;24967;51.154;13.812;2024-03-08T04:34:06;99813.88;;;-0.49;98.76
39267;BME280;24967;51.154;13.812;2024-03-08T04:36:33;99824.44;;;-0.51;98.71
39267;BME280;24967;51.154;13.812;2024-03-08T04:39:01;99825.28;;;-0.50;98.69
39267;BME280;24967;51.154;13.812;2024-03-08T04:41:28;99821.88;;;-0.52;98.75
39267;BME280;24967;51.154;13.812;2024-03-08T04:43:57;99817.50;;;-0.52;98.84
39267;BME280;24967;51.154;13.812;2024-03-08T04:46:24;99816.50;;;-0.49;99.01
39267;BME280;24967;51.154;13.812;2024-03-08T04:48:50;99817.28;;;-0.47;99.26
39267;BME280;24967;51.154;13.812;2024-03-08T04:51:16;99820.69;;;-0.45;99.63
39267;BME280;24967;51.154;13.812;2024-03-08T04:53:44;99815.44;;;-0.45;99.93
39267;BME280;24967;51.154;13.812;2024-03-08T04:56:12;99814.53;;;-0.44;99.65
39267;BME280;24967;51.154;13.812;2024-03-08T04:58:38;99812.84;;;-0.45;99.35
39267;BME280;24967;51.154;13.812;2024-03-08T05:01:05;99824.19;;;-0.46;99.14
39267;BME280;24967;51.154;13.812;2024-03-08T05:03:31;99813.59;;;-0.43;99.30
39267;BME280;24967;51.154;13.812;2024-03-08T05:05:57;99811.97;;;-0.46;99.36
39267;BME280;24967;51.154;13.812;2024-03-08T05:08:24;99815.44;;;-0.45;99.60
39267;BME280;24967;51.154;13.812;2024-03-08T05:10:51;99806.75;;;-0.46;99.28
39267;BME280;24967;51.154;13.812;2024-03-08T05:13:18;99807.47;;;-0.42;99.52
39267;BME280;24967;51.154;13.812;2024-03-08T05:15:48;99810.78;;;-0.38;99.41
39267;BME280;24967;51.154;13.812;2024-03-08T05:18:14;99810.00;;;-0.40;99.44
39267;BME280;24967;51.154;13.812;2024-03-08T05:20:41;99805.53;;;-0.38;99.51
39267;BME280;24967;51.154;13.812;2024-03-08T05:23:07;99802.25;;;-0.42;99.34
39267;BME280;24967;51.154;13.812;2024-03-08T05:25:34;99798.00;;;-0.44;99.14
39267;BME280;24967;51.154;13.812;2024-03-08T05:28:02;99798.31;;;-0.51;98.94
39267;BME280;24967;51.154;13.812;2024-03-08T05:30:32;99796.59;;;-0.52;98.76
39267;BME280;24967;51.154;13.812;2024-03-08T05:32:58;99799.31;;;-0.53;98.49
39267;BME280;24967;51.154;13.812;2024-03-08T05:35:25;99802.06;;;-0.56;98.41
39267;BME280;24967;51.154;13.812;2024-03-08T05:37:51;99800.59;;;-0.62;98.21
39267;BME280;24967;51.154;13.812;2024-03-08T05:40:17;99797.13;;;-0.62;98.16
39267;BME280;24967;51.154;13.812;2024-03-08T05:42:44;99799.88;;;-0.65;98.79
39267;BME280;24967;51.154;13.812;2024-03-08T05:45:10;99809.19;;;-0.60;98.80
39267;BME280;24967;51.154;13.812;2024-03-08T05:47:43;99800.53;;;-0.60;99.30
39267;BME280;24967;51.154;13.812;2024-03-08T05:50:15;99798.59;;;-0.57;99.64
39267;BME280;24967;51.154;13.812;2024-03-08T05:52:42;99796.75;;;-0.55;99.76
39267;BME280;24967;51.154;13.812;2024-03-08T05:55:12;99801.75;;;-0.50;99.87
39267;BME280;24967;51.154;13.812;2024-03-08T05:57:39;99799.69;;;-0.43;100.00
39267;BME280;24967;51.154;13.812;2024-03-08T06:00:06;99796.00;;;-0.39;100.00
39267;BME280;24967;51.154;13.812;2024-03-08T06:02:36;99800.94;;;-0.33;100.00
39267;BME280;24967;51.154;13.812;2024-03-08T06:05:08;99802.47;;;-0.29;100.00
39267;BME280;24967;51.154;13.812;2024-03-08T06:07:34;99806.31;;;-0.19;100.00
39267;BME280;24967;51.154;13.812;2024-03-08T06:10:01;99806.09;;;-0.14;100.00
39267;BME280;24967;51.154;13.812;2024-03-08T06:12:28;99806.25;;;-0.17;100.00
39267;BME280;24967;51.154;13.812;2024-03-08T06:14:58;99804.97;;;-0.09;100.00
39267;BME280;24967;51.154;13.812;2024-03-08T06:17:25;99802.78;;;-0.01;100.00
39267;BME280;24967;51.154;13.812;2024-03-08T06:19:51;99805.03;;;0.07;100.00
39267;BME280;24967;51.154;13.812;2024-03-08T06:22:20;99804.47;;;0.18;100.00
39267;BME280;24967;51.154;13.812;2024-03-08T06:24:47;99801.47;;;0.26;100.00
39267;BME280;24967;51.154;13.812;2024-03-08T06:27:13;99802.78;;;0.34;100.00
39267;BME280;24967;51.154;13.812;2024-03-08T06:29:39;99803.22;;;0.42;100.00
39267;BME280;24967;51.154;13.812;2024-03-08T06:32:06;99795.75;;;0.52;100.00
39267;BME280;24967;51.154;13.812;2024-03-08T06:34:33;99800.47;;;0.61;100.00
39267;BME280;24967;51.154;13.812;2024-03-08T06:36:59;99803.34;;;0.73;100.00
39267;BME280;24967;51.154;13.812;2024-03-08T06:39:33;99795.63;;;0.87;100.00
39267;BME280;24967;51.154;13.812;2024-03-08T06:42:01;99799.50;;;0.96;100.00
39267;BME280;24967;51.154;13.812;2024-03-08T06:44:27;99798.16;;;1.04;100.00
39267;BME280;24967;51.154;13.812;2024-03-08T06:46:53;99794.72;;;1.04;100.00
39267;BME280;24967;51.154;13.812;2024-03-08T06:49:20;99793.69;;;1.06;100.00
39267;BME280;24967;51.154;13.812;2024-03-08T06:51:46;99793.19;;;1.16;100.00
39267;BME280;24967;51.154;13.812;2024-03-08T06:54:12;99798.81;;;1.24;100.00
39267;BME280;24967;51.154;13.812;2024-03-08T06:56:40;99794.78;;;1.34;100.00
39267;BME280;24967;51.154;13.812;2024-03-08T06:59:06;99796.13;;;1.41;100.00
39267;BME280;24967;51.154;13.812;2024-03-08T07:01:35;99790.94;;;1.55;100.00
39267;BME280;24967;51.154;13.812;2024-03-08T07:04:02;99780.72;;;1.67;100.00
39267;BME280;24967;51.154;13.812;2024-03-08T07:06:30;99791.41;;;1.78;100.00
39267;BME280;24967;51.154;13.812;2024-03-08T07:08:58;99786.31;;;1.91;100.00
39267;BME280;24967;51.154;13.812;2024-03-08T07:11:24;99791.56;;;2.05;100.00
39267;BME280;24967;51.154;13.812;2024-03-08T07:14:02;99786.25;;;2.21;100.00
39267;BME280;24967;51.154;13.812;2024-03-08T07:16:31;99775.88;;;2.48;100.00
39267;BME280;24967;51.154;13.812;2024-03-08T07:19:00;99784.06;;;2.58;100.00
39267;BME280;24967;51.154;13.812;2024-03-08T07:21:26;99783.09;;;2.59;100.00
39267;BME280;24967;51.154;13.812;2024-03-08T07:24:00;99779.06;;;2.67;100.00
39267;BME280;24967;51.154;13.812;2024-03-08T07:26:51;99782.81;;;2.78;100.00
39267;BME280;24967;51.154;13.812;2024-03-08T07:29:22;99782.59;;;2.95;100.00
39267;BME280;24967;51.154;13.812;2024-03-08T07:31:48;99774.31;;;3.15;100.00
39267;BME280;24967;51.154;13.812;2024-03-08T07:34:30;99776.19;;;3.40;99.47
39267;BME280;24967;51.154;13.812;2024-03-08T07:36:57;99772.56;;;3.29;99.89
39267;BME280;24967;51.154;13.812;2024-03-08T07:39:37;99772.22;;;3.48;99.36
39267;BME280;24967;51.154;13.812;2024-03-08T07:42:04;99774.41;;;3.68;97.06
39267;BME280;24967;51.154;13.812;2024-03-08T07:44:32;99775.03;;;3.72;94.78
39267;BME280;24967;51.154;13.812;2024-03-08T07:46:59;99768.09;;;3.71;95.42
39267;BME280;24967;51.154;13.812;2024-03-08T07:49:25;99753.44;;;3.94;94.69
39267;BME280;24967;51.154;13.812;2024-03-08T07:51:51;99755.75;;;4.11;93.98
39267;BME280;24967;51.154;13.812;2024-03-08T07:54:18;99755.53;;;4.14;93.59
39267;BME280;24967;51.154;13.812;2024-03-08T07:56:45;99756.69;;;4.35;92.76
39267;BME280;24967;51.154;13.812;2024-03-08T07:59:12;99761.66;;;4.40;92.33
39267;BME280;24967;51.154;13.812;2024-03-08T08:01:39;99756.91;;;4.45;92.53
39267;BME280;24967;51.154;13.812;2024-03-08T08:04:06;99756.59;;;4.37;92.44
39267;BME280;24967;51.154;13.812;2024-03-08T08:06:35;99755.22;;;4.44;90.18
39267;BME280;24967;51.154;13.812;2024-03-08T08:09:03;99748.91;;;4.47;92.79
39267;BME280;24967;51.154;13.812;2024-03-08T08:11:30;99748.44;;;4.66;89.50
39267;BME280;24967;51.154;13.812;2024-03-08T08:14:00;99759.47;;;4.83;89.45
39267;BME280;24967;51.154;13.812;2024-03-08T08:16:30;99750.25;;;5.02;87.44
39267;BME280;24967;51.154;13.812;2024-03-08T08:19:01;99754.03;;;5.11;87.87
39267;BME280;24967;51.154;13.812;2024-03-08T08:21:31;99754.72;;;5.25;85.98
39267;BME280;24967;51.154;13.812;2024-03-08T08:24:06;99736.84;;;5.42;85.03
39267;BME280;24967;51.154;13.812;2024-03-08T08:26:36;99745.81;;;5.63;78.09
39267;BME280;24967;51.154;13.812;2024-03-08T08:29:06;99738.69;;;5.53;77.99
39267;BME280;24967;51.154;13.812;2024-03-08T08:31:32;99739.06;;;5.59;78.77
39267;BME280;24967;51.154;13.812;2024-03-08T08:33:59;99736.28;;;5.85;77.04
39267;BME280;24967;51.154;13.812;2024-03-08T08:36:26;99735.44;;;5.84;73.77
39267;BME280;24967;51.154;13.812;2024-03-08T08:38:54;99739.16;;;5.82;75.18
39267;BME280;24967;51.154;13.812;2024-03-08T08:41:21;99730.34;;;5.94;74.27
39267;BME280;24967;51.154;13.812;2024-03-08T08:43:48;99730.97;;;6.09;76.30
39267;BME280;24967;51.154;13.812;2024-03-08T08:46:16;99727.25;;;6.23;74.69
39267;BME280;24967;51.154;13.812;2024-03-08T08:48:43;99726.56;;;6.32;73.70
39267;BME280;24967;51.154;13.812;2024-03-08T08:51:10;99724.75;;;6.43;73.96
39267;BME280;24967;51.154;13.812;2024-03-08T08:53:39;99721.41;;;6.41;74.48
39267;BME280;24967;51.154;13.812;2024-03-08T08:56:08;99719.34;;;6.56;72.40
39267;BME280;24967;51.154;13.812;2024-03-08T08:58:34;99716.72;;;6.68;70.14
39267;BME280;24967;51.154;13.812;2024-03-08T09:01:00;99719.84;;;6.84;68.56
39267;BME280;24967;51.154;13.812;2024-03-08T09:03:27;99715.50;;;6.83;68.59
39267;BME280;24967;51.154;13.812;2024-03-08T09:05:54;99711.16;;;6.93;69.25
39267;BME280;24967;51.154;13.812;2024-03-08T09:08:21;99710.69;;;6.99;68.48
39267;BME280;24967;51.154;13.812;2024-03-08T09:10:49;99705.97;;;7.14;67.23
39267;BME280;24967;51.154;13.812;2024-03-08T09:13:16;99704.47;;;7.21;65.75
39267;BME280;24967;51.154;13.812;2024-03-08T09:15:43;99705.56;;;7.19;68.50
39267;BME280;24967;51.154;13.812;2024-03-08T09:18:10;99700.00;;;7.33;66.15
39267;BME280;24967;51.154;13.812;2024-03-08T09:20:36;99706.72;;;7.26;65.15
39267;BME280;24967;51.154;13.812;2024-03-08T09:23:03;99705.47;;;7.41;64.59
39267;BME280;24967;51.154;13.812;2024-03-08T09:25:30;99693.66;;;7.56;64.05
39267;BME280;24967;51.154;13.812;2024-03-08T09:27:57;99691.19;;;7.65;64.86
39267;BME280;24967;51.154;13.812;2024-03-08T09:30:24;99691.84;;;7.78;63.68
39267;BME280;24967;51.154;13.812;2024-03-08T09:32:50;99681.69;;;8.35;62.86
39267;BME280;24967;51.154;13.812;2024-03-08T09:35:17;99690.19;;;9.68;54.43
39267;BME280;24967;51.154;13.812;2024-03-08T09:37:43;99684.34;;;11.13;52.73
39267;BME280;24967;51.154;13.812;2024-03-08T09:40:12;99693.38;;;12.36;46.58
39267;BME280;24967;51.154;13.812;2024-03-08T09:42:40;99698.00;;;13.11;46.24
39267;BME280;24967;51.154;13.812;2024-03-08T09:45:09;99691.53;;;14.28;43.26
39267;BME280;24967;51.154;13.812;2024-03-08T09:47:37;99686.09;;;15.31;39.74
39267;BME280;24967;51.154;13.812;2024-03-08T09:50:06;99684.84;;;15.42;39.67
39267;BME280;24967;51.154;13.812;2024-03-08T09:52:34;99687.00;;;15.92;38.33
39267;BME280;24967;51.154;13.812;2024-03-08T09:55:01;99682.22;;;16.17;36.84
39267;BME280;24967;51.154;13.812;2024-03-08T09:57:27;99676.06;;;16.46;36.14
39267;BME280;24967;51.154;13.812;2024-03-08T09:59:54;99680.94;;;16.43;35.60
39267;BME280;24967;51.154;13.812;2024-03-08T10:02:22;99681.03;;;16.64;36.11
39267;BME280;24967;51.154;13.812;2024-03-08T10:04:51;99676.16;;;17.19;37.05
39267;BME280;24967;51.154;13.812;2024-03-08T10:07:18;99670.59;;;17.85;33.77
39267;BME280;24967;51.154;13.812;2024-03-08T10:09:45;99664.09;;;18.01;34.95
39267;BME280;24967;51.154;13.812;2024-03-08T10:12:15;99675.44;;;17.96;34.39
39267;BME280;24967;51.154;13.812;2024-03-08T10:14:42;99672.13;;;17.51;34.68
39267;BME280;24967;51.154;13.812;2024-03-08T10:17:08;99672.78;;;16.66;33.81
39267;BME280;24967;51.154;13.812;2024-03-08T10:19:36;99664.56;;;16.08;35.96
39267;BME280;24967;51.154;13.812;2024-03-08T10:22:02;99659.56;;;15.44;35.46
39267;BME280;24967;51.154;13.812;2024-03-08T10:24:30;99650.00;;;14.64;36.55
39267;BME280;24967;51.154;13.812;2024-03-08T10:26:59;99654.34;;;13.85;37.61
39267;BME280;24967;51.154;13.812;2024-03-08T10:29:26;99641.84;;;13.45;40.66
39267;BME280;24967;51.154;13.812;2024-03-08T10:31:54;99644.69;;;13.35;43.10
39267;BME280;24967;51.154;13.812;2024-03-08T10:34:21;99646.00;;;13.39;41.70
39267;BME280;24967;51.154;13.812;2024-03-08T10:36:50;99641.69;;;13.46;42.29
39267;BME280;24967;51.154;13.812;2024-03-08T10:39:21;99641.47;;;13.23;42.73
39267;BME280;24967;51.154;13.812;2024-03-08T10:41:53;99636.84;;;13.58;43.26
39267;BME280;24967;51.154;13.812;2024-03-08T10:44:30;99643.69;;;13.69;43.12
39267;BME280;24967;51.154;13.812;2024-03-08T10:47:01;99631.81;;;13.63;41.75
39267;BME280;24967;51.154;13.812;2024-03-08T10:49:31;99626.84;;;13.44;41.18
39267;BME280;24967;51.154;13.812;2024-03-08T10:52:03;99629.47;;;13.27;42.85
39267;BME280;24967;51.154;13.812;2024-03-08T10:54:31;99623.94;;;13.21;43.31
39267;BME280;24967;51.154;13.812;2024-03-08T10:56:58;99626.56;;;12.88;42.50
39267;BME280;24967;51.154;13.812;2024-03-08T10:59:26;99623.56;;;12.83;42.81
39267;BME280;24967;51.154;13.812;2024-03-08T11:01:53;99620.31;;;12.63;44.04
39267;BME280;24967;51.154;13.812;2024-03-08T11:04:19;99617.31;;;12.58;43.40
39267;BME280;24967;51.154;13.812;2024-03-08T11:06:50;99618.97;;;12.17;44.33
39267;BME280;24967;51.154;13.812;2024-03-08T11:09:29;99615.13;;;12.11;45.45
39267;BME280;24967;51.154;13.812;2024-03-08T11:12:24;99611.50;;;12.28;46.23
39267;BME280;24967;51.154;13.812;2024-03-08T11:14:52;99607.00;;;12.21;44.84
39267;BME280;24967;51.154;13.812;2024-03-08T11:17:44;99596.16;;;12.22;45.00
39267;BME280;24967;51.154;13.812;2024-03-08T11:20:11;99594.81;;;12.18;45.97
39267;BME280;24967;51.154;13.812;2024-03-08T11:22:43;99592.97;;;12.10;45.43
39267;BME280;24967;51.154;13.812;2024-03-08T11:25:34;99585.13;;;12.09;46.60
39267;BME280;24967;51.154;13.812;2024-03-08T11:28:10;99584.75;;;12.04;47.48
39267;BME280;24967;51.154;13.812;2024-03-08T11:30:41;99583.59;;;11.80;45.18
39267;BME280;24967;51.154;13.812;2024-03-08T11:33:11;99574.41;;;11.75;46.77
39267;BME280;24967;51.154;13.812;2024-03-08T11:35:38;99579.16;;;11.89;45.95
39267;BME280;24967;51.154;13.812;2024-03-08T11:38:07;99572.50;;;11.85;46.68
39267;BME280;24967;51.154;13.812;2024-03-08T11:40:35;99573.28;;;11.77;47.57
39267;BME280;24967;51.154;13.812;2024-03-08T11:43:03;99563.41;;;11.96;46.83
39267;BME280;24967;51.154;13.812;2024-03-08T11:45:32;99561.41;;;11.98;47.91
39267;BME280;24967;51.154;13.812;2024-03-08T11:48:01;99569.88;;;11.93;47.71
39267;BME280;24967;51.154;13.812;2024-03-08T11:50:28;99561.44;;;11.80;47.11
39267;BME280;24967;51.154;13.812;2024-03-08T11:53:00;99562.66;;;11.85;46.45
39267;BME280;24967;51.154;13.812;2024-03-08T11:55:26;99555.91;;;11.73;46.19
39267;BME280;24967;51.154;13.812;2024-03-08T11:58:03;99555.34;;;11.61;47.86
39267;BME280;24967;51.154;13.812;2024-03-08T12:00:30;99542.66;;;11.55;47.49
39267;BME280;24967;51.154;13.812;2024-03-08T12:03:07;99541.63;;;11.74;46.98
39267;BME280;24967;51.154;13.812;2024-03-08T12:05:35;99539.91;;;11.65;48.52
39267;BME280;24967;51.154;13.812;2024-03-08T12:08:03;99537.28;;;11.73;48.70
39267;BME280;24967;51.154;13.812;2024-03-08T12:10:32;99533.50;;;11.84;48.07
39267;BME280;24967;51.154;13.812;2024-03-08T12:13:01;99540.22;;;11.88;48.45
39267;BME280;24967;51.154;13.812;2024-03-08T12:15:29;99527.75;;;11.70;47.72
39267;BME280;24967;51.154;13.812;2024-03-08T12:17:58;99529.66;;;11.78;49.71
39267;BME280;24967;51.154;13.812;2024-03-08T12:20:26;99520.97;;;11.76;48.12
39267;BME280;24967;51.154;13.812;2024-03-08T12:22:55;99524.00;;;11.81;48.87
39267;BME280;24967;51.154;13.812;2024-03-08T12:25:26;99516.59;;;11.93;48.16
39267;BME280;24967;51.154;13.812;2024-03-08T12:27:52;99518.06;;;11.87;48.61
39267;BME280;24967;51.154;13.812;2024-03-08T12:30:23;99521.50;;;11.80;48.43
39267;BME280;24967;51.154;13.812;2024-03-08T12:32:53;99521.53;;;11.54;47.44
39267;BME280;24967;51.154;13.812;2024-03-08T12:35:22;99502.78;;;11.63;48.38
39267;BME280;24967;51.154;13.812;2024-03-08T12:37:50;99502.66;;;11.73;51.08
39267;BME280;24967;51.154;13.812;2024-03-08T12:40:18;99500.59;;;11.85;49.57
39267;BME280;24967;51.154;13.812;2024-03-08T12:42:45;99495.09;;;11.86;48.56
39267;BME280;24967;51.154;13.812;2024-03-08T12:45:13;99494.84;;;11.80;50.18
39267;BME280;24967;51.154;13.812;2024-03-08T12:47:41;99490.81;;;11.67;51.32
39267;BME280;24967;51.154;13.812;2024-03-08T12:50:09;99488.69;;;11.71;51.02
39267;BME280;24967;51.154;13.812;2024-03-08T12:52:37;99481.66;;;11.70;49.59
39267;BME280;24967;51.154;13.812;2024-03-08T12:55:04;99489.22;;;11.83;49.90
39267;BME280;24967;51.154;13.812;2024-03-08T12:57:32;99483.22;;;11.81;50.46
39267;BME280;24967;51.154;13.812;2024-03-08T12:59:59;99467.19;;;11.73;49.90